createdAt,value
2022-10-14T00:01:18.871Z,12.85
2022-10-14T00:03:47.352Z,12.86
2022-10-14T00:06:20.299Z,12.86
2022-10-14T00:08:48.466Z,12.86
2022-10-14T00:11:18.570Z,12.89
2022-10-14T00:13:47.087Z,12.89
2022-10-14T00:16:23.235Z,12.89
2022-10-14T00:18:51.945Z,12.91
2022-10-14T00:21:20.240Z,12.91
2022-10-14T00:23:48.420Z,12.85
2022-10-14T00:26:18.896Z,12.93
2022-10-14T00:28:47.210Z,12.84
2022-10-14T00:31:15.980Z,12.82
2022-10-14T00:33:47.951Z,12.79
2022-10-14T00:36:18.023Z,12.82
2022-10-14T00:38:46.434Z,12.78
2022-10-14T00:41:17.837Z,12.79
2022-10-14T00:44:00.279Z,12.78
2022-10-14T00:46:30.130Z,12.79
2022-10-14T00:49:08.929Z,12.85
2022-10-14T00:51:39.630Z,12.81
2022-10-14T00:54:08.487Z,12.78
2022-10-14T00:56:37.245Z,12.77
2022-10-14T00:59:09.144Z,12.72
2022-10-14T01:01:37.137Z,12.81
2022-10-14T01:04:07.525Z,12.77
2022-10-14T01:06:45.608Z,12.71
2022-10-14T01:09:25.086Z,12.72
2022-10-14T01:12:27.621Z,12.78
2022-10-14T01:14:59.919Z,12.72
2022-10-14T01:17:37.331Z,12.67
2022-10-14T01:20:39.823Z,12.62
2022-10-14T01:23:28.544Z,12.60
2022-10-14T01:26:03.206Z,12.62
2022-10-14T01:28:42.583Z,12.68
2022-10-14T01:31:14.249Z,12.68
2022-10-14T01:33:46.115Z,12.60
2022-10-14T01:36:21.531Z,12.61
2022-10-14T01:38:52.983Z,12.64
2022-10-14T01:41:24.455Z,12.61
2022-10-14T01:43:53.685Z,12.60
2022-10-14T01:46:25.758Z,12.60
2022-10-14T01:48:57.304Z,12.57
2022-10-14T01:51:30.432Z,12.55
2022-10-14T01:54:02.909Z,12.61
2022-10-14T01:56:36.971Z,12.64
2022-10-14T01:59:09.647Z,12.67
2022-10-14T02:01:39.249Z,12.62
2022-10-14T02:04:15.850Z,12.64
2022-10-14T02:06:49.697Z,12.72
2022-10-14T02:09:23.865Z,12.77
2022-10-14T02:12:04.020Z,12.78
2022-10-14T02:14:40.552Z,12.77
2022-10-14T02:17:18.528Z,12.68
2022-10-14T02:19:53.671Z,12.71
2022-10-14T02:22:29.879Z,12.67
2022-10-14T02:25:01.628Z,12.74
2022-10-14T02:27:30.428Z,12.69
2022-10-14T02:30:00.631Z,12.79
2022-10-14T02:32:30.879Z,12.74
2022-10-14T02:35:00.687Z,12.71
2022-10-14T02:37:30.689Z,12.67
2022-10-14T02:40:04.232Z,12.69
2022-10-14T02:42:33.351Z,12.65
2022-10-14T02:45:04.252Z,12.61
2022-10-14T02:47:33.650Z,12.64
2022-10-14T02:50:01.664Z,12.69
2022-10-14T02:52:31.012Z,12.62
2022-10-14T02:54:59.288Z,12.58
2022-10-14T02:57:27.320Z,12.69
2022-10-14T02:59:58.235Z,12.69
2022-10-14T03:02:26.520Z,12.61
2022-10-14T03:04:56.030Z,12.57
2022-10-14T03:07:25.060Z,12.58
2022-10-14T03:09:54.456Z,12.58
2022-10-14T03:12:24.965Z,12.58
2022-10-14T03:14:55.739Z,12.61
2022-10-14T03:17:25.991Z,12.58
2022-10-14T03:19:59.301Z,12.62
2022-10-14T03:22:28.545Z,12.64
2022-10-14T03:24:57.502Z,12.60
2022-10-14T03:27:35.219Z,12.60
2022-10-14T03:30:10.020Z,12.62
2022-10-14T03:32:45.700Z,12.61
2022-10-14T03:35:33.058Z,12.58
2022-10-14T03:38:03.995Z,12.55
2022-10-14T03:40:35.619Z,12.65
2022-10-14T03:43:08.908Z,12.60
2022-10-14T03:45:46.536Z,12.57
2022-10-14T03:48:17.405Z,12.57
2022-10-14T03:50:48.119Z,12.57
2022-10-14T03:53:16.611Z,12.58
2022-10-14T03:55:45.291Z,12.58
2022-10-14T03:58:14.469Z,12.64
2022-10-14T04:00:49.353Z,12.61
2022-10-14T04:03:37.558Z,12.60
2022-10-14T04:06:07.307Z,12.62
2022-10-14T04:08:35.243Z,12.58
2022-10-14T04:11:16.841Z,12.57
2022-10-14T04:13:46.401Z,12.57
2022-10-14T04:16:16.008Z,12.58
2022-10-14T04:19:03.736Z,12.60
2022-10-14T04:21:33.988Z,12.61
2022-10-14T04:24:07.396Z,12.61
2022-10-14T04:26:42.543Z,12.54
2022-10-14T04:29:17.534Z,12.55
2022-10-14T04:31:56.742Z,12.57
2022-10-14T04:34:25.190Z,12.50
2022-10-14T04:36:55.783Z,12.51
2022-10-14T04:39:35.567Z,12.57
2022-10-14T04:42:03.772Z,12.60
2022-10-14T04:44:32.030Z,12.45
2022-10-14T04:47:02.240Z,12.48
2022-10-14T04:49:31.278Z,12.50
2022-10-14T04:52:13.350Z,12.45
2022-10-14T04:54:48.944Z,12.44
2022-10-14T04:57:16.884Z,12.57
2022-10-14T04:59:48.939Z,12.47
2022-10-14T05:02:37.127Z,12.47
2022-10-14T05:05:05.544Z,12.45
2022-10-14T05:07:38.773Z,12.44
2022-10-14T05:10:30.481Z,12.45
2022-10-14T05:12:58.726Z,12.48
2022-10-14T05:15:30.937Z,12.57
2022-10-14T05:18:06.411Z,12.47
2022-10-14T05:20:50.597Z,12.50
2022-10-14T05:23:25.108Z,12.57
2022-10-14T05:25:53.533Z,12.47
2022-10-14T05:28:23.329Z,12.48
2022-10-14T05:30:51.861Z,12.50
2022-10-14T05:33:21.108Z,12.52
2022-10-14T05:36:04.668Z,12.58
2022-10-14T05:38:36.603Z,12.50
2022-10-14T05:41:05.250Z,12.48
2022-10-14T05:43:33.700Z,12.55
2022-10-14T05:46:04.566Z,12.58
2022-10-14T05:48:37.865Z,12.50
2022-10-14T05:51:07.134Z,12.60
2022-10-14T05:53:39.949Z,12.55
2022-10-14T05:56:13.262Z,12.52
2022-10-14T05:58:42.132Z,12.55
2022-10-14T06:01:11.913Z,12.50
2022-10-14T06:03:42.528Z,12.50
2022-10-14T06:06:13.297Z,12.51
2022-10-14T06:08:43.187Z,12.65
2022-10-14T06:11:11.126Z,12.58
2022-10-14T06:13:39.977Z,12.51
2022-10-14T06:16:10.936Z,12.61
2022-10-14T06:18:39.369Z,12.60
2022-10-14T06:21:08.260Z,12.60
2022-10-14T06:23:36.656Z,12.48
2022-10-14T06:26:08.995Z,12.60
2022-10-14T06:28:37.615Z,12.62
2022-10-14T06:31:06.972Z,12.64
2022-10-14T06:33:35.067Z,12.65
2022-10-14T06:36:04.143Z,12.77
2022-10-14T06:38:32.256Z,12.77
2022-10-14T06:41:00.396Z,12.75
2022-10-14T06:43:30.060Z,12.78
2022-10-14T06:45:58.790Z,12.81
2022-10-14T06:48:26.759Z,12.99
2022-10-14T06:50:54.837Z,12.92
2022-10-14T06:53:22.737Z,13.02
2022-10-14T06:55:50.708Z,13.13
2022-10-14T06:58:18.567Z,13.16
2022-10-14T07:00:48.392Z,13.13
2022-10-14T07:03:16.530Z,13.26
2022-10-14T07:05:44.481Z,13.27
2022-10-14T07:08:15.287Z,13.28
2022-10-14T07:10:44.014Z,13.21
2022-10-14T07:13:11.924Z,13.26
2022-10-14T07:15:40.005Z,13.36
2022-10-14T07:18:09.767Z,13.34
2022-10-14T07:20:37.741Z,13.30
2022-10-14T07:23:05.651Z,13.31
2022-10-14T07:25:34.019Z,13.37
2022-10-14T07:28:01.991Z,13.31
2022-10-14T07:30:30.107Z,13.50
2022-10-14T07:32:57.966Z,13.64
2022-10-14T07:35:27.819Z,13.64
2022-10-14T07:37:56.427Z,13.64
2022-10-14T07:40:24.728Z,13.58
2022-10-14T07:42:53.035Z,13.41
2022-10-14T07:45:21.317Z,13.38
2022-10-14T07:47:51.879Z,13.37
2022-10-14T07:50:20.801Z,13.28
2022-10-14T07:52:50.322Z,13.48
2022-10-14T07:55:18.350Z,13.68
2022-10-14T07:57:46.302Z,13.81
2022-10-14T08:00:14.553Z,13.89
2022-10-14T08:02:42.506Z,14.00
2022-10-14T08:05:36.490Z,13.87
2022-10-14T08:07:59.852Z,13.78
2022-10-14T08:10:27.952Z,13.55
2022-10-14T08:12:57.814Z,13.59
2022-10-14T08:15:28.569Z,13.48
2022-10-14T08:17:56.520Z,13.48
2022-10-14T08:20:24.423Z,13.53
2022-10-14T08:22:52.584Z,13.46
2022-10-14T08:25:22.392Z,13.47
2022-10-14T08:27:50.624Z,13.46
2022-10-14T08:30:19.183Z,13.54
2022-10-14T08:32:47.244Z,13.69
2022-10-14T08:35:16.624Z,13.76
2022-10-14T08:37:44.543Z,13.89
2022-10-14T08:40:17.266Z,13.89
2022-10-14T08:42:55.329Z,14.23
2022-10-14T08:45:31.165Z,14.55
2022-10-14T08:48:01.345Z,14.67
2022-10-14T08:50:37.031Z,14.46
2022-10-14T08:53:11.362Z,14.61
2022-10-14T08:55:42.193Z,14.52
2022-10-14T08:58:15.685Z,14.76
2022-10-14T09:00:46.871Z,14.73
2022-10-14T09:03:22.625Z,14.65
2022-10-14T09:05:58.593Z,14.76
2022-10-14T09:08:31.847Z,14.93
2022-10-14T09:11:01.383Z,14.69
2022-10-14T09:13:35.625Z,14.80
2022-10-14T09:16:07.182Z,14.72
2022-10-14T09:18:39.691Z,14.82
2022-10-14T09:21:34.124Z,14.65
2022-10-14T09:24:15.274Z,14.68
2022-10-14T09:26:45.073Z,14.73
2022-10-14T09:29:25.285Z,14.69
2022-10-14T09:31:54.588Z,14.88
2022-10-14T09:34:30.645Z,14.79
2022-10-14T09:37:01.868Z,15.02
2022-10-14T09:39:31.055Z,15.20
2022-10-14T09:42:00.540Z,15.27
2022-10-14T09:44:29.841Z,15.08
2022-10-14T09:46:59.375Z,15.45
2022-10-14T09:49:36.797Z,15.44
2022-10-14T09:52:06.771Z,15.28
2022-10-14T09:54:35.498Z,15.42
2022-10-14T09:57:07.392Z,16.03
2022-10-14T09:59:39.869Z,16.06
2022-10-14T10:02:22.134Z,16.61
2022-10-14T10:04:52.325Z,16.61
2022-10-14T10:07:32.523Z,16.89
2022-10-14T10:10:02.576Z,17.04
2022-10-14T10:12:32.692Z,16.72
2022-10-14T10:15:04.852Z,16.51
2022-10-14T10:17:36.120Z,16.18
2022-10-14T10:20:12.419Z,15.79
2022-10-14T10:22:41.824Z,15.85
2022-10-14T10:25:28.245Z,16.07
2022-10-14T10:28:00.491Z,16.28
2022-10-14T10:30:33.234Z,16.24
2022-10-14T10:33:21.283Z,15.93
2022-10-14T10:36:11.170Z,16.20
2022-10-14T10:38:46.455Z,16.68
2022-10-14T10:41:28.488Z,17.69
2022-10-14T10:44:26.731Z,17.36
2022-10-14T10:47:09.600Z,17.15
2022-10-14T10:50:08.363Z,17.32
2022-10-14T10:52:50.607Z,17.32
2022-10-14T10:55:27.065Z,17.63
2022-10-14T10:58:07.523Z,17.69
2022-10-14T11:00:49.637Z,17.53
2022-10-14T11:03:34.295Z,17.45
2022-10-14T11:06:10.167Z,17.82
2022-10-14T11:09:08.598Z,17.36
2022-10-14T11:12:12.739Z,17.24
2022-10-14T11:17:52.410Z,17.76
2022-10-14T11:20:33.805Z,17.77
2022-10-14T11:23:20.163Z,17.77
2022-10-14T11:25:56.564Z,17.89
2022-10-14T11:28:36.604Z,17.59
2022-10-14T11:31:10.116Z,17.53
2022-10-14T11:33:59.317Z,17.14
2022-10-14T11:36:37.727Z,17.46
2022-10-14T11:39:28.702Z,17.75
2022-10-14T11:42:11.320Z,18.11
2022-10-14T11:44:40.446Z,18.05
2022-10-14T11:47:13.921Z,17.73
2022-10-14T11:49:47.135Z,17.52
2022-10-14T11:52:22.424Z,17.62
2022-10-14T11:54:56.543Z,18.01
2022-10-14T11:57:31.947Z,18.42
2022-10-14T12:00:21.066Z,18.42
2022-10-14T12:02:57.201Z,18.37
2022-10-14T12:05:36.595Z,18.56
2022-10-14T12:08:16.953Z,18.29
2022-10-14T12:10:48.075Z,18.22
2022-10-14T12:13:20.876Z,18.41
2022-10-14T12:15:51.639Z,18.01
2022-10-14T12:18:20.411Z,18.15
2022-10-14T12:20:53.448Z,17.76
2022-10-14T12:23:30.865Z,17.65
2022-10-14T12:26:05.351Z,17.89
2022-10-14T12:28:38.652Z,17.55
2022-10-14T12:31:35.489Z,17.83
2022-10-14T12:34:34.808Z,18.17
2022-10-14T12:37:37.827Z,18.00
2022-10-14T12:40:30.175Z,17.79
2022-10-14T12:43:07.348Z,18.05
2022-10-14T12:45:36.869Z,19.25
2022-10-14T12:48:13.379Z,19.01
2022-10-14T12:50:42.687Z,18.81
2022-10-14T12:53:23.427Z,17.97
2022-10-14T12:55:57.364Z,17.51
2022-10-14T12:58:31.711Z,17.90
2022-10-14T13:01:03.661Z,18.17
2022-10-14T13:03:35.675Z,18.38
2022-10-14T13:06:43.374Z,18.10
2022-10-14T13:09:42.203Z,18.00
2022-10-14T13:12:45.270Z,18.03
2022-10-14T13:15:36.972Z,18.20
2022-10-14T13:18:51.321Z,18.00
2022-10-14T13:21:48.656Z,17.83
2022-10-14T13:24:21.872Z,17.75
2022-10-14T13:27:07.123Z,17.53
2022-10-14T13:29:48.703Z,17.35
2022-10-14T13:32:31.407Z,17.27
2022-10-14T13:35:11.725Z,17.34
2022-10-14T13:37:45.707Z,17.38
2022-10-14T13:40:22.721Z,17.18
2022-10-14T13:42:54.285Z,17.23
2022-10-14T13:45:29.798Z,17.31
2022-10-14T13:47:58.026Z,17.45
2022-10-14T13:50:33.093Z,17.39
2022-10-14T13:53:04.947Z,17.36
2022-10-14T13:55:45.028Z,17.39
2022-10-14T13:58:15.874Z,17.52
2022-10-14T14:00:53.737Z,17.53
2022-10-14T14:03:25.825Z,17.55
2022-10-14T14:05:55.291Z,17.62
2022-10-14T14:08:39.873Z,17.55
2022-10-14T14:11:16.930Z,17.42
2022-10-14T14:13:55.896Z,17.53
2022-10-14T14:16:31.270Z,17.69
2022-10-14T14:19:14.868Z,17.66
2022-10-14T14:21:43.446Z,17.46
2022-10-14T14:24:23.587Z,17.59
2022-10-14T14:26:55.030Z,17.53
2022-10-14T14:29:27.979Z,17.66
2022-10-14T14:32:07.130Z,17.35
2022-10-14T14:34:39.045Z,17.23
2022-10-14T14:37:37.087Z,17.25
2022-10-14T14:40:06.869Z,17.18
2022-10-14T14:42:37.559Z,17.28
2022-10-14T14:45:08.805Z,17.23
2022-10-14T14:47:39.466Z,17.23
2022-10-14T14:53:02.306Z,17.06
2022-10-14T14:55:41.545Z,17.03
2022-10-14T14:58:25.094Z,16.89
2022-10-14T15:00:54.911Z,16.81
2022-10-14T15:03:27.580Z,16.80
2022-10-14T15:06:00.490Z,16.71
2022-10-14T15:08:31.242Z,16.76
2022-10-14T15:11:01.278Z,16.62
2022-10-14T15:13:45.710Z,16.40
2022-10-14T15:16:13.731Z,16.31
2022-10-14T15:18:43.635Z,16.21
2022-10-14T15:21:19.351Z,16.07
2022-10-14T15:24:03.160Z,15.68
2022-10-14T15:26:34.557Z,15.44
2022-10-14T15:32:04.460Z,15.19
2022-10-14T15:34:35.671Z,15.03
2022-10-14T15:37:03.669Z,14.97
2022-10-14T15:39:31.624Z,14.90
2022-10-14T15:41:59.756Z,14.78
2022-10-14T15:44:28.020Z,14.85
2022-10-14T15:47:15.414Z,14.71
2022-10-14T15:49:47.466Z,14.71
2022-10-14T15:52:20.574Z,14.75
2022-10-14T15:54:51.219Z,14.69
2022-10-14T15:57:19.110Z,14.64
2022-10-14T15:59:52.003Z,14.62
2022-10-14T16:02:24.115Z,14.65
2022-10-14T16:07:42.493Z,14.65
2022-10-14T16:10:14.320Z,14.67
2022-10-14T16:12:42.795Z,14.60
2022-10-14T16:15:20.979Z,14.57
2022-10-14T16:17:52.081Z,14.51
2022-10-14T16:20:23.690Z,14.52
2022-10-14T16:22:51.616Z,14.42
2022-10-14T16:25:24.128Z,14.42
2022-10-14T16:27:52.618Z,14.38
2022-10-14T16:30:20.789Z,14.37
2022-10-14T16:32:48.951Z,14.40
2022-10-14T16:35:17.096Z,14.34
2022-10-14T16:37:48.891Z,14.28
2022-10-14T16:40:16.907Z,14.34
2022-10-14T16:42:45.191Z,14.21
2022-10-14T16:45:13.777Z,14.18
2022-10-14T16:47:42.139Z,14.23
2022-10-14T16:50:11.659Z,14.18
2022-10-14T16:52:58.897Z,14.21
2022-10-14T16:55:31.579Z,14.16
2022-10-14T16:57:59.506Z,14.14
2022-10-14T17:00:27.470Z,14.14
2022-10-14T17:02:55.423Z,14.12
2022-10-14T17:05:23.312Z,14.12
2022-10-14T17:07:51.195Z,14.12
2022-10-14T17:10:21.299Z,14.10
2022-10-14T17:12:50.606Z,14.12
2022-10-14T17:15:18.724Z,14.09
2022-10-14T17:17:46.652Z,14.13
2022-10-14T17:20:14.661Z,14.12
2022-10-14T17:22:42.954Z,14.17
2022-10-14T17:25:12.273Z,14.17
2022-10-14T17:27:40.553Z,14.14
2022-10-14T17:30:11.163Z,14.13
2022-10-14T17:32:39.046Z,14.10
2022-10-14T17:35:11.368Z,14.06
2022-10-14T17:37:42.461Z,14.12
2022-10-14T17:40:11.222Z,14.14
2022-10-14T17:42:40.094Z,14.14
2022-10-14T17:45:10.932Z,14.16
2022-10-14T17:47:39.079Z,14.27
2022-10-14T17:50:08.953Z,14.28
2022-10-14T17:52:36.758Z,14.33
2022-10-14T17:55:05.351Z,14.37
2022-10-14T17:57:33.268Z,14.35
2022-10-14T18:00:01.303Z,14.38
2022-10-14T18:02:30.645Z,14.44
2022-10-14T18:04:58.621Z,14.42
2022-10-14T18:07:27.775Z,14.41
2022-10-14T18:09:55.793Z,14.41
2022-10-14T18:12:24.375Z,14.37
2022-10-14T18:14:52.313Z,14.44
2022-10-14T18:17:20.595Z,14.42
2022-10-14T18:19:52.417Z,14.42
2022-10-14T18:22:20.486Z,14.42
2022-10-14T18:24:48.492Z,14.41
2022-10-14T18:27:16.379Z,14.41
2022-10-14T18:29:44.277Z,14.41
2022-10-14T18:32:12.359Z,14.42
2022-10-14T18:34:40.279Z,14.49
2022-10-14T18:37:09.629Z,14.51
2022-10-14T18:39:37.749Z,14.51
2022-10-14T18:42:05.686Z,14.48
2022-10-14T18:44:33.610Z,14.44
2022-10-14T18:47:01.588Z,14.45
2022-10-14T18:49:29.535Z,14.44
2022-10-14T18:51:57.458Z,14.49
2022-10-14T18:54:26.762Z,14.46
2022-10-14T18:56:55.728Z,14.48
2022-10-14T18:59:24.641Z,14.48
2022-10-14T19:01:53.687Z,14.44
2022-10-14T19:04:23.770Z,14.40
2022-10-14T19:06:51.557Z,14.42
2022-10-14T19:09:24.674Z,14.42
2022-10-14T19:11:57.383Z,14.40
2022-10-14T19:14:25.352Z,14.38
2022-10-14T19:16:53.230Z,14.37
2022-10-14T19:19:21.433Z,14.33
2022-10-14T19:21:54.081Z,14.37
2022-10-14T19:24:22.105Z,14.45
2022-10-14T19:26:50.264Z,14.42
2022-10-14T19:29:19.692Z,14.45
2022-10-14T19:31:49.211Z,14.51
2022-10-14T19:34:17.636Z,14.54
2022-10-14T19:36:46.046Z,14.49
2022-10-14T19:39:18.918Z,14.46
2022-10-14T19:41:47.438Z,14.48
2022-10-14T19:44:17.020Z,14.46
2022-10-14T19:46:47.091Z,14.46
2022-10-14T19:49:16.265Z,14.48
2022-10-14T19:51:44.196Z,14.49
2022-10-14T19:54:13.535Z,14.52
2022-10-14T19:56:42.962Z,14.51
2022-10-14T19:59:13.625Z,14.54
2022-10-14T20:01:42.590Z,14.49
2022-10-14T20:04:11.901Z,14.49
2022-10-14T20:06:40.391Z,14.46
2022-10-14T20:09:09.269Z,14.48
2022-10-14T20:11:37.260Z,14.44
2022-10-14T20:14:05.158Z,14.46
2022-10-14T20:16:33.178Z,14.37
2022-10-14T20:19:01.625Z,14.38
2022-10-14T20:21:31.781Z,14.38
2022-10-14T20:24:00.566Z,14.35
2022-10-14T20:26:28.543Z,14.34
2022-10-14T20:28:56.629Z,14.33
2022-10-14T20:31:26.207Z,14.34
2022-10-14T20:33:56.331Z,14.38
2022-10-14T20:36:24.726Z,14.41
2022-10-14T20:38:54.019Z,14.45
2022-10-14T20:41:24.363Z,14.51
2022-10-14T20:43:52.722Z,14.48
2022-10-14T20:46:21.925Z,14.42
2022-10-14T20:48:54.035Z,14.41
2022-10-14T20:51:22.778Z,14.26
2022-10-14T20:53:50.995Z,14.21
2022-10-14T20:56:20.331Z,14.18
2022-10-14T20:58:48.266Z,14.18
2022-10-14T21:01:17.675Z,14.14
2022-10-14T21:03:48.797Z,14.17
2022-10-14T21:06:19.552Z,14.16
2022-10-14T21:08:47.451Z,14.17
2022-10-14T21:11:17.428Z,14.24
2022-10-14T21:13:47.700Z,14.28
2022-10-14T21:16:17.694Z,14.28
2022-10-14T21:18:46.949Z,14.27
2022-10-14T21:21:16.808Z,14.26
2022-10-14T21:23:46.205Z,14.27
2022-10-14T21:26:14.165Z,14.28
2022-10-14T21:28:42.249Z,14.37
2022-10-14T21:31:16.021Z,14.40
2022-10-14T21:33:48.138Z,14.48
2022-10-14T21:36:17.285Z,14.45
2022-10-14T21:38:45.334Z,14.44
2022-10-14T21:41:13.406Z,14.41
2022-10-14T21:43:41.684Z,14.48
2022-10-14T21:46:13.560Z,14.42
2022-10-14T21:48:43.460Z,14.38
2022-10-14T21:51:12.173Z,14.24
2022-10-14T21:53:41.987Z,14.14
2022-10-14T21:56:11.598Z,14.06
2022-10-14T21:58:40.336Z,14.05
2022-10-14T22:01:11.580Z,14.08
2022-10-14T22:03:41.471Z,14.08
2022-10-14T22:06:11.400Z,14.03
2022-10-14T22:08:41.898Z,13.95
2022-10-14T22:11:16.875Z,14.03
2022-10-14T22:13:44.941Z,14.05
2022-10-14T22:16:13.564Z,14.09
2022-10-14T22:18:44.996Z,14.06
2022-10-14T22:21:13.685Z,14.06
2022-10-14T22:23:41.803Z,14.02
2022-10-14T22:26:11.985Z,14.05
2022-10-14T22:28:40.321Z,13.98
2022-10-14T22:31:09.613Z,13.92
2022-10-14T22:33:38.703Z,13.93
2022-10-14T22:36:10.505Z,13.95
2022-10-14T22:38:39.487Z,13.92
2022-10-14T22:41:08.620Z,13.92
2022-10-14T22:43:36.983Z,13.95
2022-10-14T22:46:07.519Z,14.00
2022-10-14T22:48:35.762Z,14.02
2022-10-14T22:51:04.946Z,14.03
2022-10-14T22:53:34.786Z,14.16
2022-10-14T22:56:02.659Z,14.13
2022-10-14T22:58:30.622Z,14.05
2022-10-14T23:01:07.306Z,14.02
2022-10-14T23:03:35.460Z,13.98
2022-10-14T23:06:04.264Z,14.00
2022-10-14T23:08:32.796Z,14.06
2022-10-14T23:11:02.814Z,14.00
2022-10-14T23:13:30.849Z,13.92
2022-10-14T23:15:59.764Z,13.96
2022-10-14T23:18:29.015Z,13.90
2022-10-14T23:20:57.196Z,13.89
2022-10-14T23:23:25.464Z,13.87
2022-10-14T23:25:53.393Z,13.87
2022-10-14T23:28:22.707Z,13.83
2022-10-14T23:30:50.683Z,13.79
2022-10-14T23:33:18.598Z,13.71
2022-10-14T23:35:46.500Z,13.62
2022-10-14T23:38:14.889Z,13.51
2022-10-14T23:40:42.792Z,13.46
2022-10-14T23:43:10.747Z,13.46
2022-10-14T23:45:40.065Z,13.41
2022-10-14T23:48:08.131Z,13.19
2022-10-14T23:50:36.036Z,13.19
2022-10-14T23:53:05.575Z,13.13
2022-10-14T23:55:33.498Z,13.09
2022-10-14T23:58:01.446Z,13.06
